sensor_id;sensor_type;location;lat;lon;timestamp;pressure;altitude;pressure_sealevel;temperature;humidity
14269;BME280;7218;51.480;7.006;2022-10-16T00:00:40;100256.00;;;15.21;100.00
14269;BME280;7218;51.480;7.006;2022-10-16T00:03:09;100243.50;;;15.28;100.00
14269;BME280;7218;51.480;7.006;2022-10-16T00:05:41;100254.72;;;15.31;100.00
14269;BME280;7218;51.480;7.006;2022-10-16T00:08:08;100262.78;;;15.27;100.00
14269;BME280;7218;51.480;7.006;2022-10-16T00:10:35;100273.88;;;15.12;100.00
14269;BME280;7218;51.480;7.006;2022-10-16T00:13:02;100271.88;;;14.95;100.00
14269;BME280;7218;51.480;7.006;2022-10-16T00:15:33;100272.38;;;15.04;100.00
14269;BME280;7218;51.480;7.006;2022-10-16T00:18:01;100267.66;;;14.91;100.00
14269;BME280;7218;51.480;7.006;2022-10-16T00:20:28;100270.00;;;14.98;100.00
14269;BME280;7218;51.480;7.006;2022-10-16T00:22:56;100258.72;;;14.73;100.00
14269;BME280;7218;51.480;7.006;2022-10-16T00:25:23;100261.84;;;14.83;100.00
14269;BME280;7218;51.480;7.006;2022-10-16T00:27:50;100281.00;;;14.85;100.00
14269;BME280;7218;51.480;7.006;2022-10-16T00:30:16;100278.16;;;14.91;100.00
14269;BME280;7218;51.480;7.006;2022-10-16T00:32:44;100267.31;;;14.77;100.00
14269;BME280;7218;51.480;7.006;2022-10-16T00:35:11;100266.63;;;14.95;100.00
14269;BME280;7218;51.480;7.006;2022-10-16T00:37:37;100278.28;;;14.88;100.00
14269;BME280;7218;51.480;7.006;2022-10-16T00:40:04;100280.91;;;14.88;100.00
14269;BME280;7218;51.480;7.006;2022-10-16T00:42:31;100278.81;;;14.74;100.00
14269;BME280;7218;51.480;7.006;2022-10-16T00:44:57;100279.84;;;14.93;100.00
14269;BME280;7218;51.480;7.006;2022-10-16T00:47:27;100270.50;;;14.85;100.00
14269;BME280;7218;51.480;7.006;2022-10-16T00:49:59;100269.88;;;15.01;100.00
14269;BME280;7218;51.480;7.006;2022-10-16T00:52:28;100276.69;;;14.84;100.00
14269;BME280;7218;51.480;7.006;2022-10-16T00:54:55;100281.66;;;14.91;100.00
14269;BME280;7218;51.480;7.006;2022-10-16T00:57:22;100283.72;;;14.83;100.00
14269;BME280;7218;51.480;7.006;2022-10-16T00:59:49;100281.25;;;14.79;100.00
14269;BME280;7218;51.480;7.006;2022-10-16T01:02:17;100271.63;;;14.79;100.00
14269;BME280;7218;51.480;7.006;2022-10-16T01:04:45;100273.31;;;15.03;100.00
14269;BME280;7218;51.480;7.006;2022-10-16T01:07:19;100265.44;;;15.03;100.00
14269;BME280;7218;51.480;7.006;2022-10-16T01:10:02;100275.53;;;14.91;100.00
14269;BME280;7218;51.480;7.006;2022-10-16T01:12:38;100271.78;;;14.98;100.00
14269;BME280;7218;51.480;7.006;2022-10-16T01:15:11;100280.91;;;15.11;100.00
14269;BME280;7218;51.480;7.006;2022-10-16T01:17:44;100276.47;;;15.13;100.00
14269;BME280;7218;51.480;7.006;2022-10-16T01:20:20;100275.78;;;15.08;100.00
14269;BME280;7218;51.480;7.006;2022-10-16T01:23:01;100280.91;;;15.11;100.00
14269;BME280;7218;51.480;7.006;2022-10-16T01:25:39;100281.47;;;14.96;100.00
14269;BME280;7218;51.480;7.006;2022-10-16T01:28:17;100275.66;;;15.11;100.00
14269;BME280;7218;51.480;7.006;2022-10-16T01:30:50;100282.38;;;14.72;100.00
14269;BME280;7218;51.480;7.006;2022-10-16T01:33:21;100280.03;;;14.64;100.00
14269;BME280;7218;51.480;7.006;2022-10-16T01:35:52;100278.41;;;14.60;100.00
14269;BME280;7218;51.480;7.006;2022-10-16T01:38:25;100282.53;;;14.67;100.00
14269;BME280;7218;51.480;7.006;2022-10-16T01:40:57;100272.78;;;14.71;100.00
14269;BME280;7218;51.480;7.006;2022-10-16T01:43:29;100279.41;;;14.57;100.00
14269;BME280;7218;51.480;7.006;2022-10-16T01:45:59;100280.03;;;14.64;100.00
14269;BME280;7218;51.480;7.006;2022-10-16T01:48:26;100272.69;;;14.74;100.00
14269;BME280;7218;51.480;7.006;2022-10-16T01:50:56;100272.44;;;14.80;100.00
14269;BME280;7218;51.480;7.006;2022-10-16T01:53:25;100269.69;;;14.84;100.00
14269;BME280;7218;51.480;7.006;2022-10-16T01:55:55;100274.94;;;14.84;100.00
14269;BME280;7218;51.480;7.006;2022-10-16T01:58:23;100272.56;;;14.77;100.00
14269;BME280;7218;51.480;7.006;2022-10-16T02:00:52;100271.31;;;14.63;100.00
14269;BME280;7218;51.480;7.006;2022-10-16T02:03:20;100275.03;;;14.81;100.00
14269;BME280;7218;51.480;7.006;2022-10-16T02:05:50;100269.94;;;14.77;100.00
14269;BME280;7218;51.480;7.006;2022-10-16T02:08:18;100278.84;;;14.73;100.00
14269;BME280;7218;51.480;7.006;2022-10-16T02:10:45;100285.00;;;14.72;100.00
14269;BME280;7218;51.480;7.006;2022-10-16T02:13:15;100289.13;;;14.79;100.00
14269;BME280;7218;51.480;7.006;2022-10-16T02:15:43;100294.44;;;14.77;100.00
14269;BME280;7218;51.480;7.006;2022-10-16T02:18:11;100286.22;;;14.86;100.00
14269;BME280;7218;51.480;7.006;2022-10-16T02:20:43;100288.06;;;14.84;100.00
14269;BME280;7218;51.480;7.006;2022-10-16T02:23:18;100286.75;;;14.71;100.00
14269;BME280;7218;51.480;7.006;2022-10-16T02:25:46;100284.53;;;14.60;100.00
14269;BME280;7218;51.480;7.006;2022-10-16T02:28:16;100286.19;;;14.63;100.00
14269;BME280;7218;51.480;7.006;2022-10-16T02:30:46;100286.94;;;14.67;100.00
14269;BME280;7218;51.480;7.006;2022-10-16T02:33:17;100294.94;;;14.63;100.00
14269;BME280;7218;51.480;7.006;2022-10-16T02:35:47;100293.00;;;14.69;100.00
14269;BME280;7218;51.480;7.006;2022-10-16T02:38:15;100299.00;;;14.72;100.00
14269;BME280;7218;51.480;7.006;2022-10-16T02:40:42;100290.38;;;14.69;100.00
14269;BME280;7218;51.480;7.006;2022-10-16T02:43:09;100287.78;;;14.67;100.00
14269;BME280;7218;51.480;7.006;2022-10-16T02:45:37;100297.63;;;14.85;100.00
14269;BME280;7218;51.480;7.006;2022-10-16T02:48:04;100286.47;;;15.03;100.00
14269;BME280;7218;51.480;7.006;2022-10-16T02:50:32;100283.03;;;15.01;100.00
14269;BME280;7218;51.480;7.006;2022-10-16T02:52:58;100288.41;;;14.98;100.00
14269;BME280;7218;51.480;7.006;2022-10-16T02:55:24;100290.78;;;15.04;100.00
14269;BME280;7218;51.480;7.006;2022-10-16T02:57:52;100284.44;;;14.87;100.00
14269;BME280;7218;51.480;7.006;2022-10-16T03:00:19;100287.13;;;14.85;100.00
14269;BME280;7218;51.480;7.006;2022-10-16T03:02:46;100287.41;;;14.78;100.00
14269;BME280;7218;51.480;7.006;2022-10-16T03:05:13;100284.25;;;14.68;100.00
14269;BME280;7218;51.480;7.006;2022-10-16T03:07:41;100276.97;;;14.76;100.00
14269;BME280;7218;51.480;7.006;2022-10-16T03:10:08;100288.19;;;14.80;100.00
14269;BME280;7218;51.480;7.006;2022-10-16T03:12:35;100294.94;;;14.87;100.00
14269;BME280;7218;51.480;7.006;2022-10-16T03:15:02;100301.78;;;14.91;100.00
14269;BME280;7218;51.480;7.006;2022-10-16T03:17:28;100312.94;;;14.97;100.00
14269;BME280;7218;51.480;7.006;2022-10-16T03:19:55;100300.44;;;15.04;100.00
14269;BME280;7218;51.480;7.006;2022-10-16T03:22:21;100299.13;;;14.92;100.00
14269;BME280;7218;51.480;7.006;2022-10-16T03:24:49;100299.06;;;14.94;100.00
14269;BME280;7218;51.480;7.006;2022-10-16T03:27:15;100286.00;;;14.92;100.00
14269;BME280;7218;51.480;7.006;2022-10-16T03:29:42;100295.41;;;14.98;100.00
14269;BME280;7218;51.480;7.006;2022-10-16T03:32:08;100296.44;;;14.94;100.00
14269;BME280;7218;51.480;7.006;2022-10-16T03:34:35;100289.34;;;14.96;100.00
14269;BME280;7218;51.480;7.006;2022-10-16T03:37:01;100294.44;;;15.00;100.00
14269;BME280;7218;51.480;7.006;2022-10-16T03:39:28;100304.50;;;14.89;100.00
14269;BME280;7218;51.480;7.006;2022-10-16T03:41:56;100298.22;;;14.93;100.00
14269;BME280;7218;51.480;7.006;2022-10-16T03:44:22;100294.94;;;14.87;100.00
14269;BME280;7218;51.480;7.006;2022-10-16T03:46:49;100299.81;;;14.97;100.00
14269;BME280;7218;51.480;7.006;2022-10-16T03:49:15;100296.97;;;15.03;100.00
14269;BME280;7218;51.480;7.006;2022-10-16T03:51:41;100303.16;;;14.78;100.00
14269;BME280;7218;51.480;7.006;2022-10-16T03:54:09;100300.09;;;14.65;100.00
14269;BME280;7218;51.480;7.006;2022-10-16T03:56:35;100299.03;;;14.71;100.00
14269;BME280;7218;51.480;7.006;2022-10-16T03:59:03;100309.53;;;14.71;100.00
14269;BME280;7218;51.480;7.006;2022-10-16T04:01:30;100304.97;;;14.76;100.00
14269;BME280;7218;51.480;7.006;2022-10-16T04:03:56;100303.94;;;14.80;100.00
14269;BME280;7218;51.480;7.006;2022-10-16T04:06:23;100310.81;;;14.84;100.00
14269;BME280;7218;51.480;7.006;2022-10-16T04:08:49;100313.69;;;14.53;100.00
14269;BME280;7218;51.480;7.006;2022-10-16T04:11:16;100309.97;;;14.58;100.00
14269;BME280;7218;51.480;7.006;2022-10-16T04:13:42;100307.88;;;14.68;100.00
14269;BME280;7218;51.480;7.006;2022-10-16T04:16:10;100320.38;;;14.61;100.00
14269;BME280;7218;51.480;7.006;2022-10-16T04:18:37;100326.06;;;14.49;100.00
14269;BME280;7218;51.480;7.006;2022-10-16T04:21:04;100322.44;;;14.52;100.00
14269;BME280;7218;51.480;7.006;2022-10-16T04:23:31;100326.84;;;14.51;100.00
14269;BME280;7218;51.480;7.006;2022-10-16T04:25:59;100328.88;;;14.68;100.00
14269;BME280;7218;51.480;7.006;2022-10-16T04:28:26;100323.56;;;14.70;100.00
14269;BME280;7218;51.480;7.006;2022-10-16T04:30:53;100329.75;;;14.69;100.00
14269;BME280;7218;51.480;7.006;2022-10-16T04:33:21;100332.81;;;14.55;100.00
14269;BME280;7218;51.480;7.006;2022-10-16T04:35:47;100342.88;;;14.44;100.00
14269;BME280;7218;51.480;7.006;2022-10-16T04:38:14;100342.38;;;14.57;100.00
14269;BME280;7218;51.480;7.006;2022-10-16T04:40:41;100340.97;;;14.47;100.00
14269;BME280;7218;51.480;7.006;2022-10-16T04:43:07;100348.03;;;14.45;100.00
14269;BME280;7218;51.480;7.006;2022-10-16T04:45:34;100352.69;;;14.37;100.00
14269;BME280;7218;51.480;7.006;2022-10-16T04:48:00;100349.00;;;14.43;100.00
14269;BME280;7218;51.480;7.006;2022-10-16T04:50:28;100351.47;;;14.47;100.00
14269;BME280;7218;51.480;7.006;2022-10-16T04:52:54;100349.28;;;14.60;100.00
14269;BME280;7218;51.480;7.006;2022-10-16T04:55:21;100359.16;;;14.53;100.00
14269;BME280;7218;51.480;7.006;2022-10-16T04:57:47;100357.53;;;14.49;100.00
14269;BME280;7218;51.480;7.006;2022-10-16T05:00:14;100355.81;;;14.48;100.00
14269;BME280;7218;51.480;7.006;2022-10-16T05:02:41;100357.47;;;14.51;100.00
14269;BME280;7218;51.480;7.006;2022-10-16T05:05:08;100365.66;;;14.42;100.00
14269;BME280;7218;51.480;7.006;2022-10-16T05:07:36;100380.94;;;14.55;100.00
14269;BME280;7218;51.480;7.006;2022-10-16T05:10:02;100380.22;;;14.50;100.00
14269;BME280;7218;51.480;7.006;2022-10-16T05:12:29;100386.25;;;14.54;100.00
14269;BME280;7218;51.480;7.006;2022-10-16T05:14:55;100376.81;;;14.48;100.00
14269;BME280;7218;51.480;7.006;2022-10-16T05:17:23;100380.22;;;14.50;100.00
14269;BME280;7218;51.480;7.006;2022-10-16T05:19:50;100382.16;;;14.45;100.00
14269;BME280;7218;51.480;7.006;2022-10-16T05:22:16;100381.75;;;14.30;100.00
14269;BME280;7218;51.480;7.006;2022-10-16T05:24:45;100386.03;;;14.34;100.00
14269;BME280;7218;51.480;7.006;2022-10-16T05:27:11;100384.19;;;14.37;100.00
14269;BME280;7218;51.480;7.006;2022-10-16T05:29:44;100387.69;;;14.36;100.00
14269;BME280;7218;51.480;7.006;2022-10-16T05:32:10;100390.31;;;14.36;100.00
14269;BME280;7218;51.480;7.006;2022-10-16T05:34:37;100390.34;;;14.35;100.00
14269;BME280;7218;51.480;7.006;2022-10-16T05:37:03;100394.66;;;14.37;100.00
14269;BME280;7218;51.480;7.006;2022-10-16T05:39:30;100394.56;;;14.40;100.00
14269;BME280;7218;51.480;7.006;2022-10-16T05:41:58;100394.13;;;14.26;100.00
14269;BME280;7218;51.480;7.006;2022-10-16T05:44:24;100398.19;;;14.36;100.00
14269;BME280;7218;51.480;7.006;2022-10-16T05:46:51;100396.75;;;14.54;100.00
14269;BME280;7218;51.480;7.006;2022-10-16T05:49:17;100405.44;;;14.28;100.00
14269;BME280;7218;51.480;7.006;2022-10-16T05:51:44;100400.75;;;14.39;100.00
14269;BME280;7218;51.480;7.006;2022-10-16T05:54:10;100407.63;;;14.42;100.00
14269;BME280;7218;51.480;7.006;2022-10-16T05:56:37;100404.84;;;14.46;100.00
14269;BME280;7218;51.480;7.006;2022-10-16T05:59:05;100425.00;;;14.46;100.00
14269;BME280;7218;51.480;7.006;2022-10-16T06:01:31;100433.72;;;14.46;100.00
14269;BME280;7218;51.480;7.006;2022-10-16T06:03:58;100426.31;;;14.31;100.00
14269;BME280;7218;51.480;7.006;2022-10-16T06:06:26;100432.97;;;14.43;100.00
14269;BME280;7218;51.480;7.006;2022-10-16T06:08:54;100430.72;;;14.58;100.00
14269;BME280;7218;51.480;7.006;2022-10-16T06:11:22;100432.56;;;14.55;100.00
14269;BME280;7218;51.480;7.006;2022-10-16T06:13:49;100433.75;;;14.71;100.00
14269;BME280;7218;51.480;7.006;2022-10-16T06:16:17;100450.34;;;14.73;100.00
14269;BME280;7218;51.480;7.006;2022-10-16T06:18:44;100449.00;;;14.60;100.00
14269;BME280;7218;51.480;7.006;2022-10-16T06:21:12;100448.44;;;14.50;100.00
14269;BME280;7218;51.480;7.006;2022-10-16T06:23:40;100460.59;;;14.54;100.00
14269;BME280;7218;51.480;7.006;2022-10-16T06:26:07;100459.50;;;14.60;100.00
14269;BME280;7218;51.480;7.006;2022-10-16T06:28:34;100451.78;;;14.55;100.00
14269;BME280;7218;51.480;7.006;2022-10-16T06:31:01;100448.13;;;14.59;100.00
14269;BME280;7218;51.480;7.006;2022-10-16T06:33:29;100454.16;;;14.63;100.00
14269;BME280;7218;51.480;7.006;2022-10-16T06:36:00;100455.97;;;14.61;100.00
14269;BME280;7218;51.480;7.006;2022-10-16T06:38:26;100458.75;;;14.29;100.00
14269;BME280;7218;51.480;7.006;2022-10-16T06:40:53;100473.38;;;14.37;100.00
14269;BME280;7218;51.480;7.006;2022-10-16T06:43:19;100468.94;;;14.39;100.00
14269;BME280;7218;51.480;7.006;2022-10-16T06:45:50;100480.25;;;14.41;100.00
14269;BME280;7218;51.480;7.006;2022-10-16T06:48:17;100492.50;;;14.41;100.00
14269;BME280;7218;51.480;7.006;2022-10-16T06:50:55;100495.31;;;14.62;100.00
14269;BME280;7218;51.480;7.006;2022-10-16T06:53:21;100491.69;;;14.65;100.00
14269;BME280;7218;51.480;7.006;2022-10-16T06:55:57;100496.25;;;14.60;100.00
14269;BME280;7218;51.480;7.006;2022-10-16T06:58:24;100505.31;;;14.50;100.00
14269;BME280;7218;51.480;7.006;2022-10-16T07:00:55;100517.94;;;14.65;100.00
14269;BME280;7218;51.480;7.006;2022-10-16T07:03:22;100512.00;;;14.60;100.00
14269;BME280;7218;51.480;7.006;2022-10-16T07:05:50;100527.81;;;14.58;100.00
14269;BME280;7218;51.480;7.006;2022-10-16T07:08:16;100531.16;;;14.34;100.00
14269;BME280;7218;51.480;7.006;2022-10-16T07:10:43;100530.44;;;14.58;100.00
14269;BME280;7218;51.480;7.006;2022-10-16T07:13:09;100530.94;;;14.42;100.00
14269;BME280;7218;51.480;7.006;2022-10-16T07:15:38;100545.91;;;14.66;100.00
14269;BME280;7218;51.480;7.006;2022-10-16T07:18:04;100546.66;;;14.70;100.00
14269;BME280;7218;51.480;7.006;2022-10-16T07:20:31;100553.13;;;14.59;100.00
14269;BME280;7218;51.480;7.006;2022-10-16T07:22:59;100558.06;;;14.42;100.00
14269;BME280;7218;51.480;7.006;2022-10-16T07:25:25;100552.66;;;14.47;100.00
14269;BME280;7218;51.480;7.006;2022-10-16T07:27:52;100563.19;;;14.45;100.00
14269;BME280;7218;51.480;7.006;2022-10-16T07:30:22;100558.88;;;14.44;100.00
14269;BME280;7218;51.480;7.006;2022-10-16T07:32:48;100566.94;;;14.38;100.00
14269;BME280;7218;51.480;7.006;2022-10-16T07:35:14;100565.81;;;14.45;100.00
14269;BME280;7218;51.480;7.006;2022-10-16T07:37:44;100565.06;;;14.42;100.00
14269;BME280;7218;51.480;7.006;2022-10-16T07:40:12;100571.50;;;14.59;100.00
14269;BME280;7218;51.480;7.006;2022-10-16T07:42:38;100579.91;;;14.71;100.00
14269;BME280;7218;51.480;7.006;2022-10-16T07:45:06;100579.56;;;14.81;100.00
14269;BME280;7218;51.480;7.006;2022-10-16T07:47:32;100584.88;;;14.52;100.00
14269;BME280;7218;51.480;7.006;2022-10-16T07:49:59;100589.34;;;14.76;100.00
14269;BME280;7218;51.480;7.006;2022-10-16T07:52:25;100595.63;;;14.72;100.00
14269;BME280;7218;51.480;7.006;2022-10-16T07:54:52;100598.91;;;15.05;100.00
14269;BME280;7218;51.480;7.006;2022-10-16T07:57:19;100593.47;;;15.11;100.00
14269;BME280;7218;51.480;7.006;2022-10-16T07:59:46;100608.47;;;15.07;100.00
14269;BME280;7218;51.480;7.006;2022-10-16T08:02:12;100604.81;;;15.13;100.00
14269;BME280;7218;51.480;7.006;2022-10-16T08:04:39;100602.41;;;15.32;100.00
14269;BME280;7218;51.480;7.006;2022-10-16T08:07:06;100618.13;;;15.33;100.00
14269;BME280;7218;51.480;7.006;2022-10-16T08:09:33;100615.50;;;15.60;100.00
14269;BME280;7218;51.480;7.006;2022-10-16T08:12:00;100620.53;;;15.66;100.00
14269;BME280;7218;51.480;7.006;2022-10-16T08:14:28;100620.13;;;15.78;100.00
14269;BME280;7218;51.480;7.006;2022-10-16T08:16:55;100635.47;;;15.65;100.00
14269;BME280;7218;51.480;7.006;2022-10-16T08:19:21;100644.47;;;15.58;100.00
14269;BME280;7218;51.480;7.006;2022-10-16T08:21:48;100641.31;;;15.98;100.00
14269;BME280;7218;51.480;7.006;2022-10-16T08:24:14;100645.34;;;16.08;100.00
14269;BME280;7218;51.480;7.006;2022-10-16T08:26:40;100657.31;;;15.92;100.00
14269;BME280;7218;51.480;7.006;2022-10-16T08:29:07;100643.94;;;15.98;100.00
14269;BME280;7218;51.480;7.006;2022-10-16T08:31:35;100652.63;;;16.00;100.00
14269;BME280;7218;51.480;7.006;2022-10-16T08:34:01;100646.72;;;16.42;100.00
14269;BME280;7218;51.480;7.006;2022-10-16T08:36:28;100654.38;;;16.24;100.00
14269;BME280;7218;51.480;7.006;2022-10-16T08:38:54;100666.53;;;16.28;100.00
14269;BME280;7218;51.480;7.006;2022-10-16T08:41:41;100665.72;;;16.50;100.00
14269;BME280;7218;51.480;7.006;2022-10-16T08:44:30;100683.41;;;16.23;100.00
14269;BME280;7218;51.480;7.006;2022-10-16T08:47:10;100685.47;;;16.38;100.00
14269;BME280;7218;51.480;7.006;2022-10-16T08:49:41;100687.97;;;16.66;100.00
14269;BME280;7218;51.480;7.006;2022-10-16T08:52:11;100684.81;;;17.01;100.00
14269;BME280;7218;51.480;7.006;2022-10-16T08:54:41;100693.81;;;17.39;99.20
14269;BME280;7218;51.480;7.006;2022-10-16T08:57:11;100699.41;;;17.32;98.98
14269;BME280;7218;51.480;7.006;2022-10-16T08:59:39;100710.09;;;17.07;98.51
14269;BME280;7218;51.480;7.006;2022-10-16T09:02:23;100701.47;;;16.80;100.00
14269;BME280;7218;51.480;7.006;2022-10-16T09:04:59;100706.59;;;17.28;100.00
14269;BME280;7218;51.480;7.006;2022-10-16T09:07:32;100711.06;;;17.48;99.13
14269;BME280;7218;51.480;7.006;2022-10-16T09:10:13;100710.66;;;17.37;98.38
14269;BME280;7218;51.480;7.006;2022-10-16T09:12:48;100711.44;;;17.60;97.81
14269;BME280;7218;51.480;7.006;2022-10-16T09:15:27;100721.28;;;17.34;97.80
14269;BME280;7218;51.480;7.006;2022-10-16T09:18:01;100712.91;;;17.68;96.43
14269;BME280;7218;51.480;7.006;2022-10-16T09:20:38;100729.75;;;17.85;95.72
14269;BME280;7218;51.480;7.006;2022-10-16T09:23:25;100714.38;;;18.15;93.71
14269;BME280;7218;51.480;7.006;2022-10-16T09:25:52;100723.81;;;18.41;92.81
14269;BME280;7218;51.480;7.006;2022-10-16T09:28:20;100732.69;;;18.38;92.51
14269;BME280;7218;51.480;7.006;2022-10-16T09:30:47;100733.28;;;18.65;92.10
14269;BME280;7218;51.480;7.006;2022-10-16T09:33:19;100725.47;;;19.01;89.67
14269;BME280;7218;51.480;7.006;2022-10-16T09:35:48;100727.66;;;19.65;86.29
14269;BME280;7218;51.480;7.006;2022-10-16T09:38:24;100726.22;;;20.11;84.20
14269;BME280;7218;51.480;7.006;2022-10-16T09:40:51;100729.16;;;20.05;83.48
14269;BME280;7218;51.480;7.006;2022-10-16T09:43:22;100724.34;;;19.61;83.75
14269;BME280;7218;51.480;7.006;2022-10-16T09:45:57;100737.91;;;19.54;84.31
14269;BME280;7218;51.480;7.006;2022-10-16T09:48:28;100723.16;;;18.75;88.33
14269;BME280;7218;51.480;7.006;2022-10-16T09:50:59;100727.28;;;19.37;85.89
14269;BME280;7218;51.480;7.006;2022-10-16T09:53:38;100734.94;;;21.12;78.38
14269;BME280;7218;51.480;7.006;2022-10-16T09:56:05;100743.16;;;21.23;76.04
14269;BME280;7218;51.480;7.006;2022-10-16T09:58:32;100738.78;;;20.57;80.71
14269;BME280;7218;51.480;7.006;2022-10-16T10:00:59;100744.00;;;21.55;75.31
14269;BME280;7218;51.480;7.006;2022-10-16T10:03:35;100735.44;;;21.50;74.41
14269;BME280;7218;51.480;7.006;2022-10-16T10:06:16;100733.13;;;21.12;78.13
14269;BME280;7218;51.480;7.006;2022-10-16T10:08:54;100727.88;;;22.61;70.29
14269;BME280;7218;51.480;7.006;2022-10-16T10:11:40;100726.53;;;23.38;67.49
14269;BME280;7218;51.480;7.006;2022-10-16T10:14:16;100747.28;;;21.44;73.24
14269;BME280;7218;51.480;7.006;2022-10-16T10:16:44;100731.88;;;22.83;68.26
14269;BME280;7218;51.480;7.006;2022-10-16T10:19:15;100739.31;;;24.64;64.16
14269;BME280;7218;51.480;7.006;2022-10-16T10:21:42;100739.53;;;23.42;65.05
14269;BME280;7218;51.480;7.006;2022-10-16T10:24:10;100734.47;;;24.06;62.57
14269;BME280;7218;51.480;7.006;2022-10-16T10:26:38;100745.44;;;25.15;58.90
14269;BME280;7218;51.480;7.006;2022-10-16T10:29:16;100743.19;;;23.68;63.85
14269;BME280;7218;51.480;7.006;2022-10-16T10:31:51;100745.09;;;23.66;63.83
14269;BME280;7218;51.480;7.006;2022-10-16T10:34:36;100746.16;;;25.77;54.84
14269;BME280;7218;51.480;7.006;2022-10-16T10:37:13;100752.66;;;25.62;52.73
14269;BME280;7218;51.480;7.006;2022-10-16T10:39:48;100757.09;;;26.09;53.66
14269;BME280;7218;51.480;7.006;2022-10-16T10:42:25;100753.81;;;24.47;55.16
14269;BME280;7218;51.480;7.006;2022-10-16T10:45:06;100766.56;;;23.50;57.29
14269;BME280;7218;51.480;7.006;2022-10-16T10:47:45;100762.03;;;22.53;61.22
14269;BME280;7218;51.480;7.006;2022-10-16T10:50:22;100767.88;;;22.16;63.16
14269;BME280;7218;51.480;7.006;2022-10-16T10:52:59;100769.34;;;22.50;61.64
14269;BME280;7218;51.480;7.006;2022-10-16T10:55:39;100759.44;;;23.37;59.90
14269;BME280;7218;51.480;7.006;2022-10-16T10:58:22;100764.25;;;23.03;59.09
14269;BME280;7218;51.480;7.006;2022-10-16T11:00:57;100760.59;;;23.33;59.44
14269;BME280;7218;51.480;7.006;2022-10-16T11:03:46;100758.63;;;23.08;59.58
14269;BME280;7218;51.480;7.006;2022-10-16T11:06:24;100759.44;;;23.37;59.52
14269;BME280;7218;51.480;7.006;2022-10-16T11:08:54;100757.91;;;23.74;57.52
14269;BME280;7218;51.480;7.006;2022-10-16T11:11:25;100757.94;;;23.86;56.49
14269;BME280;7218;51.480;7.006;2022-10-16T11:13:58;100763.63;;;22.42;62.54
14269;BME280;7218;51.480;7.006;2022-10-16T11:16:28;100759.59;;;22.50;62.57
14269;BME280;7218;51.480;7.006;2022-10-16T11:18:59;100754.06;;;22.53;64.16
14269;BME280;7218;51.480;7.006;2022-10-16T11:21:36;100756.41;;;22.29;63.45
14269;BME280;7218;51.480;7.006;2022-10-16T11:24:14;100757.47;;;23.67;58.21
14269;BME280;7218;51.480;7.006;2022-10-16T11:26:43;100759.47;;;24.80;54.20
14269;BME280;7218;51.480;7.006;2022-10-16T11:29:17;100762.47;;;23.72;57.01
14269;BME280;7218;51.480;7.006;2022-10-16T11:31:50;100766.28;;;23.41;59.38
14269;BME280;7218;51.480;7.006;2022-10-16T11:34:23;100764.06;;;25.40;54.21
14269;BME280;7218;51.480;7.006;2022-10-16T11:36:57;100767.44;;;26.13;49.68
14269;BME280;7218;51.480;7.006;2022-10-16T11:39:28;100766.44;;;28.55;44.08
14269;BME280;7218;51.480;7.006;2022-10-16T11:42:01;100780.75;;;26.94;44.72
14269;BME280;7218;51.480;7.006;2022-10-16T11:44:50;100769.28;;;28.53;43.05
14269;BME280;7218;51.480;7.006;2022-10-16T11:47:25;100768.22;;;28.45;42.31
14269;BME280;7218;51.480;7.006;2022-10-16T11:49:58;100770.53;;;29.69;40.01
14269;BME280;7218;51.480;7.006;2022-10-16T11:52:32;100769.47;;;29.91;38.85
14269;BME280;7218;51.480;7.006;2022-10-16T11:55:04;100771.34;;;30.66;36.20
14269;BME280;7218;51.480;7.006;2022-10-16T11:57:33;100770.25;;;30.49;36.92
14269;BME280;7218;51.480;7.006;2022-10-16T12:00:05;100781.34;;;31.47;34.54
14269;BME280;7218;51.480;7.006;2022-10-16T12:02:50;100794.19;;;31.36;34.52
14269;BME280;7218;51.480;7.006;2022-10-16T12:05:23;100799.97;;;28.40;38.56
14269;BME280;7218;51.480;7.006;2022-10-16T12:07:58;100798.47;;;26.73;43.38
14269;BME280;7218;51.480;7.006;2022-10-16T12:10:29;100797.66;;;28.35;40.40
14269;BME280;7218;51.480;7.006;2022-10-16T12:12:57;100806.84;;;28.33;40.85
14269;BME280;7218;51.480;7.006;2022-10-16T12:15:25;100802.78;;;28.17;40.44
14269;BME280;7218;51.480;7.006;2022-10-16T12:17:52;100797.66;;;28.35;40.82
14269;BME280;7218;51.480;7.006;2022-10-16T12:20:26;100803.44;;;29.92;37.05
14269;BME280;7218;51.480;7.006;2022-10-16T12:22:59;100792.47;;;30.61;35.24
14269;BME280;7218;51.480;7.006;2022-10-16T12:25:28;100795.38;;;28.31;38.93
14269;BME280;7218;51.480;7.006;2022-10-16T12:27:57;100781.44;;;28.57;38.08
14269;BME280;7218;51.480;7.006;2022-10-16T12:30:26;100797.78;;;27.81;40.51
14269;BME280;7218;51.480;7.006;2022-10-16T12:32:54;100796.34;;;27.77;39.25
14269;BME280;7218;51.480;7.006;2022-10-16T12:35:24;100794.84;;;27.19;41.58
14269;BME280;7218;51.480;7.006;2022-10-16T12:37:51;100790.63;;;28.34;39.54
14269;BME280;7218;51.480;7.006;2022-10-16T12:40:31;100790.28;;;28.69;40.33
14269;BME280;7218;51.480;7.006;2022-10-16T12:42:59;100792.06;;;29.69;38.10
14269;BME280;7218;51.480;7.006;2022-10-16T12:45:28;100799.09;;;28.60;38.73
14269;BME280;7218;51.480;7.006;2022-10-16T12:47:56;100809.66;;;27.56;41.15
14269;BME280;7218;51.480;7.006;2022-10-16T12:50:29;100803.97;;;27.93;41.43
14269;BME280;7218;51.480;7.006;2022-10-16T12:52:57;100810.38;;;30.52;36.23
14269;BME280;7218;51.480;7.006;2022-10-16T12:55:24;100815.31;;;29.89;35.53
14269;BME280;7218;51.480;7.006;2022-10-16T12:58:04;100809.03;;;26.64;41.05
14269;BME280;7218;51.480;7.006;2022-10-16T13:00:40;100805.66;;;29.77;38.91
14269;BME280;7218;51.480;7.006;2022-10-16T13:03:42;100804.16;;;29.35;37.58
14269;BME280;7218;51.480;7.006;2022-10-16T13:06:20;100820.56;;;30.20;35.22